createdAt,value
2019-01-31T20:54:20.495Z,95573.89
2019-01-31T20:56:51.236Z,95563.92
2019-01-31T20:59:19.958Z,95566.06
2019-01-31T21:01:48.626Z,95574.54
2019-01-31T21:04:17.555Z,95575.83
2019-01-31T21:06:46.260Z,95567.84
2019-01-31T21:09:15.174Z,95566.55
2019-01-31T21:11:45.885Z,95566.12
2019-01-31T21:14:14.521Z,95554.74
2019-01-31T21:16:51.385Z,95550.09
2019-01-31T21:19:14.500Z,95533.66
2019-01-31T21:21:44.159Z,95530.22
2019-01-31T21:24:12.536Z,95534.43
2019-01-31T21:26:41.166Z,95533.98
2019-01-31T21:29:09.666Z,95531.90
2019-01-31T21:31:38.099Z,95535.67
2019-01-31T21:34:06.465Z,95543.66
2019-01-31T21:36:35.681Z,95545.28
2019-01-31T21:39:05.569Z,95549.03
2019-01-31T21:41:33.818Z,95541.84
2019-01-31T21:44:02.084Z,95542.17
2019-01-31T21:46:32.630Z,95542.53
2019-01-31T21:49:00.912Z,95536.55
2019-01-31T21:51:29.169Z,95525.92
2019-01-31T21:53:57.435Z,95530.49
2019-01-31T21:56:25.897Z,95522.83
2019-01-31T21:58:54.041Z,95524.05
2019-01-31T22:01:22.232Z,95513.88
2019-01-31T22:03:50.444Z,95516.80
2019-01-31T22:06:22.788Z,95504.44
2019-01-31T22:08:48.535Z,95502.27
2019-01-31T22:11:16.732Z,95502.61
2019-01-31T22:13:45.808Z,95505.94
2019-01-31T22:16:14.019Z,95501.66
2019-01-31T22:18:42.215Z,95498.22
2019-01-31T22:21:10.397Z,95492.67
2019-01-31T22:23:38.579Z,95493.05
2019-01-31T22:26:06.789Z,95487.88
2019-01-31T22:28:34.972Z,95487.85
2019-01-31T22:31:03.166Z,95474.73
2019-01-31T22:33:31.354Z,95474.25
2019-01-31T22:35:59.568Z,95464.05
2019-01-31T22:38:27.745Z,95454.31
2019-01-31T22:40:55.924Z,95454.31
2019-01-31T22:43:24.110Z,95452.98
2019-01-31T22:45:52.298Z,95447.91
2019-01-31T22:48:20.486Z,95443.63
2019-01-31T22:50:48.675Z,95444.03
2019-01-31T22:53:16.897Z,95446.95
2019-01-31T22:55:45.083Z,95441.40
2019-01-31T22:58:13.281Z,95451.09
2019-01-31T23:00:52.020Z,95461.24
2019-01-31T23:03:20.214Z,95459.56
2019-01-31T23:05:48.389Z,95457.44
2019-01-31T23:08:16.580Z,95454.05
2019-01-31T23:10:44.844Z,95448.97
2019-01-31T23:13:13.027Z,95446.88
2019-01-31T23:15:41.212Z,95443.08
2019-01-31T23:18:09.511Z,95438.86
2019-01-31T23:20:37.692Z,95442.66
2019-01-31T23:23:05.886Z,95434.68
2019-01-31T23:25:40.279Z,95432.62
2019-01-31T23:28:04.273Z,95431.77
2019-01-31T23:30:32.454Z,95441.50
2019-01-31T23:33:00.650Z,95435.16
2019-01-31T23:35:28.834Z,95436.42
2019-01-31T23:37:57.065Z,95430.08
2019-01-31T23:40:25.243Z,95425.02
2019-01-31T23:42:53.475Z,95426.28
2019-01-31T23:45:21.655Z,95426.28
2019-01-31T23:47:49.858Z,95431.35
2019-01-31T23:50:18.030Z,95416.99
2019-01-31T23:52:46.217Z,95411.06
2019-01-31T23:55:15.850Z,95408.94
2019-01-31T23:57:44.038Z,95405.10
